Terminal Aerodrome Forecast
Issued by NWS

Current Version | Previous Version | Text Only | Print | Product List | Glossary On
Versions: 1 2 3 4 5 6 7 8 9 10 11 12 13 14 15
000
FTUS41 KBTV 182300
TAFPBG
TAF
KPBG 182330Z 1900/1924 15012KT P6SM BKN150
     FM190400 18007KT P6SM OVC060
     FM190700 32004KT P6SM -SHRA OVC035
     FM191400 34014G22KT P6SM SCT070=

USA.gov is the U.S. government's official web portal to all federal, state and local government web resources and services.